Aérodrome :
LOGIN :

S'inscrire | Disclaimer

   EN    FR    IT 

 










Légende :    VFR   VFR Marginal   IFR   IFR Intensif   IFR Très Intensif
Visi : 
Plafond : 
>= 8 km
>= 3000ft
5 à 8 km
1000 à 3000 ft
1500m à 5 km
500 à 1000 ft
800 à 1500m
200 à 500 ft
< 800m
< 200 ft
Symboles :   Orages  Brouillard  Fortes neiges  Fortes précipitations  Vent > 20 kt
SIGMETs :   Divers  Orages  Givrage  Turbulence  Onde Orograph.  Cendres Volcan.






- Altitude de l'aérodrome : 1247 ft
- Code IATA : PRG


LKPR - Praha Ruzyne

DERNIER METAR :
  • 051900Z 18006KT 9000 OVC011 M02/M04 Q1022 NOSIG

METARs EXPIRÉS :
  • 051830Z 18006KT 9000 OVC011 M02/M03 Q1022 NOSIG
  • 051800Z 17005KT 120V200 9000 OVC011 M01/M03 Q1022 NOSIG
  • 051730Z 17006KT 110V200 9000 OVC012 M01/M03 Q1022 NOSIG
  • 051700Z 17006KT 140V200 9000 OVC012 M01/M03 Q1022 NOSIG
  • 051630Z 17006KT 9000 OVC012 M01/M04 Q1022 NOSIG

TAF TAF LKPR
Valide du 05 à 18h jusqu'au 07 à 00h UTC


051700Z 0518/0700 20007KT 9000 OVC012
TEMPO 0523/0606 4000 BR OVC007
BECMG 0608/0610 22012KT CAVOK
PROB30
TEMPO 0618/0700 23016G26KT



MET'MAP, la Météo Aéronautique d'un coup d'oeil ! - Copyright ORBIFLY Décembre 2007 - Disclaimer

ORBIFLY MET'MAP TEAM :

Programmation & Développement : Alexandra Zaïnal
Sur une idée originale de : Baudouin d'Aumeries
Assistance à la programmation : Marc-Olivier Méhu
Soutien technique & logistique : Manuel Goepfert

Contact : metmap@orbifly.com




SOURCES & CREDITS :

   NOAA